sensor_id;sensor_type;location;lat;lon;timestamp;P1;durP1;ratioP1;P2;durP2;ratioP2
13345;SDS011;6742;48.036;15.780;2023-06-14T00:00:30;2.42;;;2.20;;
13345;SDS011;6742;48.036;15.780;2023-06-14T00:02:59;2.50;;;2.22;;
13345;SDS011;6742;48.036;15.780;2023-06-14T00:05:26;5.38;;;2.22;;
13345;SDS011;6742;48.036;15.780;2023-06-14T00:07:54;2.47;;;2.28;;
13345;SDS011;6742;48.036;15.780;2023-06-14T00:10:21;2.88;;;2.28;;
13345;SDS011;6742;48.036;15.780;2023-06-14T00:12:50;2.40;;;2.20;;
13345;SDS011;6742;48.036;15.780;2023-06-14T00:15:16;3.38;;;2.17;;
13345;SDS011;6742;48.036;15.780;2023-06-14T00:17:43;2.88;;;2.50;;
13345;SDS011;6742;48.036;15.780;2023-06-14T00:20:12;3.67;;;2.15;;
13345;SDS011;6742;48.036;15.780;2023-06-14T00:22:39;2.30;;;2.10;;
13345;SDS011;6742;48.036;15.780;2023-06-14T00:25:06;3.17;;;2.15;;
13345;SDS011;6742;48.036;15.780;2023-06-14T00:27:33;3.17;;;2.20;;
13345;SDS011;6742;48.036;15.780;2023-06-14T00:30:02;3.03;;;2.15;;
13345;SDS011;6742;48.036;15.780;2023-06-14T00:32:29;3.63;;;2.15;;
13345;SDS011;6742;48.036;15.780;2023-06-14T00:34:56;3.03;;;2.30;;
13345;SDS011;6742;48.036;15.780;2023-06-14T00:37:23;2.97;;;2.10;;
13345;SDS011;6742;48.036;15.780;2023-06-14T00:39:50;2.20;;;2.00;;
13345;SDS011;6742;48.036;15.780;2023-06-14T00:42:23;2.20;;;2.00;;
13345;SDS011;6742;48.036;15.780;2023-06-14T00:44:50;2.40;;;2.20;;
13345;SDS011;6742;48.036;15.780;2023-06-14T00:47:19;2.33;;;2.13;;
13345;SDS011;6742;48.036;15.780;2023-06-14T00:49:46;2.22;;;2.03;;
13345;SDS011;6742;48.036;15.780;2023-06-14T00:52:14;2.53;;;2.30;;
13345;SDS011;6742;48.036;15.780;2023-06-14T00:54:42;2.17;;;2.05;;
13345;SDS011;6742;48.036;15.780;2023-06-14T00:57:10;2.45;;;2.25;;
13345;SDS011;6742;48.036;15.780;2023-06-14T00:59:40;2.38;;;2.10;;
13345;SDS011;6742;48.036;15.780;2023-06-14T01:02:09;2.60;;;2.20;;
13345;SDS011;6742;48.036;15.780;2023-06-14T01:04:37;2.28;;;1.95;;
13345;SDS011;6742;48.036;15.780;2023-06-14T01:07:09;4.22;;;2.25;;
13345;SDS011;6742;48.036;15.780;2023-06-14T01:09:47;2.40;;;2.13;;
13345;SDS011;6742;48.036;15.780;2023-06-14T01:12:27;2.35;;;2.00;;
13345;SDS011;6742;48.036;15.780;2023-06-14T01:15:02;3.53;;;2.10;;
13345;SDS011;6742;48.036;15.780;2023-06-14T01:17:31;2.50;;;2.30;;
13345;SDS011;6742;48.036;15.780;2023-06-14T01:20:00;2.35;;;2.15;;
13345;SDS011;6742;48.036;15.780;2023-06-14T01:22:31;3.42;;;2.30;;
13345;SDS011;6742;48.036;15.780;2023-06-14T01:25:00;3.45;;;2.60;;
13345;SDS011;6742;48.036;15.780;2023-06-14T01:27:27;2.97;;;2.35;;
13345;SDS011;6742;48.036;15.780;2023-06-14T01:29:54;2.35;;;2.15;;
13345;SDS011;6742;48.036;15.780;2023-06-14T01:32:23;3.15;;;2.25;;
13345;SDS011;6742;48.036;15.780;2023-06-14T01:34:50;2.67;;;2.15;;
13345;SDS011;6742;48.036;15.780;2023-06-14T01:37:17;2.55;;;2.20;;
13345;SDS011;6742;48.036;15.780;2023-06-14T01:39:45;3.03;;;2.72;;
13345;SDS011;6742;48.036;15.780;2023-06-14T01:42:16;4.30;;;2.15;;
13345;SDS011;6742;48.036;15.780;2023-06-14T01:44:44;2.50;;;2.25;;
13345;SDS011;6742;48.036;15.780;2023-06-14T01:47:14;2.80;;;2.30;;
13345;SDS011;6742;48.036;15.780;2023-06-14T01:49:41;2.42;;;2.17;;
13345;SDS011;6742;48.036;15.780;2023-06-14T01:52:08;2.50;;;2.30;;
13345;SDS011;6742;48.036;15.780;2023-06-14T01:54:35;2.45;;;2.20;;
13345;SDS011;6742;48.036;15.780;2023-06-14T01:57:07;2.70;;;2.40;;
13345;SDS011;6742;48.036;15.780;2023-06-14T01:59:36;3.15;;;2.30;;
13345;SDS011;6742;48.036;15.780;2023-06-14T02:02:04;2.83;;;2.60;;
13345;SDS011;6742;48.036;15.780;2023-06-14T02:04:30;4.10;;;2.28;;
13345;SDS011;6742;48.036;15.780;2023-06-14T02:06:57;2.45;;;2.25;;
13345;SDS011;6742;48.036;15.780;2023-06-14T02:09:24;2.60;;;2.40;;
13345;SDS011;6742;48.036;15.780;2023-06-14T02:11:52;3.88;;;3.30;;
13345;SDS011;6742;48.036;15.780;2023-06-14T02:14:18;2.55;;;2.13;;
13345;SDS011;6742;48.036;15.780;2023-06-14T02:16:47;2.53;;;2.33;;
13345;SDS011;6742;48.036;15.780;2023-06-14T02:19:15;2.47;;;2.20;;
13345;SDS011;6742;48.036;15.780;2023-06-14T02:21:42;2.67;;;2.38;;
13345;SDS011;6742;48.036;15.780;2023-06-14T02:24:09;4.32;;;2.55;;
13345;SDS011;6742;48.036;15.780;2023-06-14T02:26:36;3.38;;;2.40;;
13345;SDS011;6742;48.036;15.780;2023-06-14T02:29:04;2.70;;;2.17;;
13345;SDS011;6742;48.036;15.780;2023-06-14T02:31:33;3.05;;;2.60;;
13345;SDS011;6742;48.036;15.780;2023-06-14T02:34:02;3.33;;;2.50;;
13345;SDS011;6742;48.036;15.780;2023-06-14T02:36:29;3.55;;;2.38;;
13345;SDS011;6742;48.036;15.780;2023-06-14T02:38:56;3.08;;;2.38;;
13345;SDS011;6742;48.036;15.780;2023-06-14T02:41:23;2.88;;;2.53;;
13345;SDS011;6742;48.036;15.780;2023-06-14T02:43:51;3.85;;;2.20;;
13345;SDS011;6742;48.036;15.780;2023-06-14T02:46:18;4.35;;;2.50;;
13345;SDS011;6742;48.036;15.780;2023-06-14T02:48:45;3.58;;;2.78;;
13345;SDS011;6742;48.036;15.780;2023-06-14T02:51:13;2.92;;;2.25;;
13345;SDS011;6742;48.036;15.780;2023-06-14T02:53:40;2.60;;;2.10;;
13345;SDS011;6742;48.036;15.780;2023-06-14T02:56:07;2.97;;;2.67;;
13345;SDS011;6742;48.036;15.780;2023-06-14T02:58:34;3.05;;;2.60;;
13345;SDS011;6742;48.036;15.780;2023-06-14T03:01:02;3.50;;;2.40;;
13345;SDS011;6742;48.036;15.780;2023-06-14T03:03:30;3.05;;;2.70;;
13345;SDS011;6742;48.036;15.780;2023-06-14T03:05:57;3.08;;;2.50;;
13345;SDS011;6742;48.036;15.780;2023-06-14T03:08:31;2.72;;;2.28;;
13345;SDS011;6742;48.036;15.780;2023-06-14T03:11:03;4.35;;;2.42;;
13345;SDS011;6742;48.036;15.780;2023-06-14T03:13:31;3.30;;;2.70;;
13345;SDS011;6742;48.036;15.780;2023-06-14T03:15:58;3.45;;;2.30;;
13345;SDS011;6742;48.036;15.780;2023-06-14T03:18:27;2.92;;;2.63;;
13345;SDS011;6742;48.036;15.780;2023-06-14T03:20:55;2.60;;;2.40;;
13345;SDS011;6742;48.036;15.780;2023-06-14T03:23:23;2.92;;;2.50;;
13345;SDS011;6742;48.036;15.780;2023-06-14T03:25:51;2.70;;;2.50;;
13345;SDS011;6742;48.036;15.780;2023-06-14T03:28:18;2.78;;;2.47;;
13345;SDS011;6742;48.036;15.780;2023-06-14T03:30:46;5.00;;;2.90;;
13345;SDS011;6742;48.036;15.780;2023-06-14T03:33:13;3.95;;;2.40;;
13345;SDS011;6742;48.036;15.780;2023-06-14T03:35:40;3.78;;;2.47;;
13345;SDS011;6742;48.036;15.780;2023-06-14T03:38:07;2.55;;;2.35;;
13345;SDS011;6742;48.036;15.780;2023-06-14T03:40:34;4.45;;;2.42;;
13345;SDS011;6742;48.036;15.780;2023-06-14T03:43:03;2.72;;;2.53;;
13345;SDS011;6742;48.036;15.780;2023-06-14T03:45:29;2.97;;;2.40;;
13345;SDS011;6742;48.036;15.780;2023-06-14T03:47:56;3.40;;;2.50;;
13345;SDS011;6742;48.036;15.780;2023-06-14T03:50:25;2.83;;;2.40;;
13345;SDS011;6742;48.036;15.780;2023-06-14T03:52:52;2.58;;;2.38;;
13345;SDS011;6742;48.036;15.780;2023-06-14T03:55:19;4.30;;;2.88;;
13345;SDS011;6742;48.036;15.780;2023-06-14T03:57:46;3.63;;;3.33;;
13345;SDS011;6742;48.036;15.780;2023-06-14T04:00:15;3.97;;;3.53;;
13345;SDS011;6742;48.036;15.780;2023-06-14T04:02:43;4.50;;;3.05;;
13345;SDS011;6742;48.036;15.780;2023-06-14T04:05:10;4.25;;;3.45;;
13345;SDS011;6742;48.036;15.780;2023-06-14T04:07:37;3.95;;;3.15;;
13345;SDS011;6742;48.036;15.780;2023-06-14T04:10:05;4.90;;;3.60;;
13345;SDS011;6742;48.036;15.780;2023-06-14T04:12:34;4.25;;;3.45;;
13345;SDS011;6742;48.036;15.780;2023-06-14T04:15:01;4.03;;;3.40;;
13345;SDS011;6742;48.036;15.780;2023-06-14T04:17:29;3.22;;;2.88;;
13345;SDS011;6742;48.036;15.780;2023-06-14T04:19:57;6.25;;;3.10;;
13345;SDS011;6742;48.036;15.780;2023-06-14T04:22:25;5.00;;;3.17;;
13345;SDS011;6742;48.036;15.780;2023-06-14T04:24:53;4.43;;;3.63;;
13345;SDS011;6742;48.036;15.780;2023-06-14T04:27:20;4.35;;;3.95;;
13345;SDS011;6742;48.036;15.780;2023-06-14T04:29:50;5.22;;;3.60;;
13345;SDS011;6742;48.036;15.780;2023-06-14T04:32:22;6.30;;;3.58;;
13345;SDS011;6742;48.036;15.780;2023-06-14T04:34:52;4.63;;;3.30;;
13345;SDS011;6742;48.036;15.780;2023-06-14T04:37:20;5.15;;;3.35;;
13345;SDS011;6742;48.036;15.780;2023-06-14T04:39:47;4.15;;;3.42;;
13345;SDS011;6742;48.036;15.780;2023-06-14T04:42:15;3.78;;;3.38;;
13345;SDS011;6742;48.036;15.780;2023-06-14T04:44:42;5.25;;;3.25;;
13345;SDS011;6742;48.036;15.780;2023-06-14T04:47:10;3.90;;;3.25;;
13345;SDS011;6742;48.036;15.780;2023-06-14T04:49:37;3.90;;;2.90;;
13345;SDS011;6742;48.036;15.780;2023-06-14T04:52:06;4.20;;;3.42;;
13345;SDS011;6742;48.036;15.780;2023-06-14T04:54:35;3.97;;;3.20;;
13345;SDS011;6742;48.036;15.780;2023-06-14T04:57:03;5.25;;;3.30;;
13345;SDS011;6742;48.036;15.780;2023-06-14T04:59:30;3.55;;;2.90;;
13345;SDS011;6742;48.036;15.780;2023-06-14T05:01:58;4.00;;;3.20;;
13345;SDS011;6742;48.036;15.780;2023-06-14T05:04:25;3.35;;;2.92;;
13345;SDS011;6742;48.036;15.780;2023-06-14T05:06:53;3.70;;;3.10;;
13345;SDS011;6742;48.036;15.780;2023-06-14T05:09:21;3.85;;;3.50;;
13345;SDS011;6742;48.036;15.780;2023-06-14T05:11:48;5.07;;;3.20;;
13345;SDS011;6742;48.036;15.780;2023-06-14T05:14:15;3.10;;;2.80;;
13345;SDS011;6742;48.036;15.780;2023-06-14T05:16:47;5.45;;;3.17;;
13345;SDS011;6742;48.036;15.780;2023-06-14T05:19:14;4.05;;;3.42;;
13345;SDS011;6742;48.036;15.780;2023-06-14T05:21:42;4.38;;;3.10;;
13345;SDS011;6742;48.036;15.780;2023-06-14T05:24:09;4.25;;;3.80;;
13345;SDS011;6742;48.036;15.780;2023-06-14T05:26:38;3.65;;;3.33;;
13345;SDS011;6742;48.036;15.780;2023-06-14T05:29:05;3.55;;;2.88;;
13345;SDS011;6742;48.036;15.780;2023-06-14T05:31:32;4.57;;;3.35;;
13345;SDS011;6742;48.036;15.780;2023-06-14T05:33:59;3.95;;;3.15;;
13345;SDS011;6742;48.036;15.780;2023-06-14T05:36:26;3.92;;;3.63;;
13345;SDS011;6742;48.036;15.780;2023-06-14T05:38:53;5.07;;;4.00;;
13345;SDS011;6742;48.036;15.780;2023-06-14T05:41:22;4.07;;;3.60;;
13345;SDS011;6742;48.036;15.780;2023-06-14T05:43:52;4.38;;;3.97;;
13345;SDS011;6742;48.036;15.780;2023-06-14T05:46:20;4.00;;;3.60;;
13345;SDS011;6742;48.036;15.780;2023-06-14T05:48:50;6.65;;;3.90;;
13345;SDS011;6742;48.036;15.780;2023-06-14T05:51:17;4.03;;;3.53;;
13345;SDS011;6742;48.036;15.780;2023-06-14T05:53:44;5.25;;;3.22;;
13345;SDS011;6742;48.036;15.780;2023-06-14T05:56:12;4.88;;;3.25;;
13345;SDS011;6742;48.036;15.780;2023-06-14T05:58:39;4.10;;;3.33;;
13345;SDS011;6742;48.036;15.780;2023-06-14T06:01:07;3.50;;;3.20;;
13345;SDS011;6742;48.036;15.780;2023-06-14T06:03:34;5.03;;;3.40;;
13345;SDS011;6742;48.036;15.780;2023-06-14T06:06:01;4.03;;;2.80;;
13345;SDS011;6742;48.036;15.780;2023-06-14T06:08:28;3.95;;;3.08;;
13345;SDS011;6742;48.036;15.780;2023-06-14T06:10:56;3.15;;;2.85;;
13345;SDS011;6742;48.036;15.780;2023-06-14T06:13:23;5.88;;;3.10;;
13345;SDS011;6742;48.036;15.780;2023-06-14T06:15:50;3.10;;;2.80;;
13345;SDS011;6742;48.036;15.780;2023-06-14T06:18:18;3.20;;;2.80;;
13345;SDS011;6742;48.036;15.780;2023-06-14T06:20:45;3.13;;;2.83;;
13345;SDS011;6742;48.036;15.780;2023-06-14T06:23:12;3.63;;;2.72;;
13345;SDS011;6742;48.036;15.780;2023-06-14T06:25:39;4.35;;;2.45;;
13345;SDS011;6742;48.036;15.780;2023-06-14T06:28:06;4.70;;;2.70;;
13345;SDS011;6742;48.036;15.780;2023-06-14T06:30:33;3.35;;;2.55;;
13345;SDS011;6742;48.036;15.780;2023-06-14T06:33:01;3.97;;;3.10;;
13345;SDS011;6742;48.036;15.780;2023-06-14T06:35:30;2.85;;;2.28;;
13345;SDS011;6742;48.036;15.780;2023-06-14T06:37:58;3.83;;;2.67;;
13345;SDS011;6742;48.036;15.780;2023-06-14T06:40:26;3.40;;;2.80;;
13345;SDS011;6742;48.036;15.780;2023-06-14T06:42:52;3.85;;;2.47;;
13345;SDS011;6742;48.036;15.780;2023-06-14T06:45:19;2.38;;;2.17;;
13345;SDS011;6742;48.036;15.780;2023-06-14T06:47:48;3.47;;;2.42;;
13345;SDS011;6742;48.036;15.780;2023-06-14T06:50:15;2.65;;;2.40;;
13345;SDS011;6742;48.036;15.780;2023-06-14T06:52:45;4.40;;;2.60;;
13345;SDS011;6742;48.036;15.780;2023-06-14T06:55:12;2.60;;;2.33;;
13345;SDS011;6742;48.036;15.780;2023-06-14T06:57:39;3.53;;;2.20;;
13345;SDS011;6742;48.036;15.780;2023-06-14T07:00:06;2.47;;;2.15;;
13345;SDS011;6742;48.036;15.780;2023-06-14T07:02:35;3.03;;;2.10;;
13345;SDS011;6742;48.036;15.780;2023-06-14T07:05:02;2.40;;;2.20;;
13345;SDS011;6742;48.036;15.780;2023-06-14T07:07:29;2.50;;;2.30;;
13345;SDS011;6742;48.036;15.780;2023-06-14T07:09:57;2.63;;;2.42;;
13345;SDS011;6742;48.036;15.780;2023-06-14T07:12:25;2.25;;;2.05;;
13345;SDS011;6742;48.036;15.780;2023-06-14T07:14:52;3.45;;;2.65;;
13345;SDS011;6742;48.036;15.780;2023-06-14T07:17:19;4.65;;;2.13;;
13345;SDS011;6742;48.036;15.780;2023-06-14T07:19:46;2.20;;;2.00;;
13345;SDS011;6742;48.036;15.780;2023-06-14T07:22:13;4.65;;;2.00;;
13345;SDS011;6742;48.036;15.780;2023-06-14T07:24:39;3.35;;;2.25;;
13345;SDS011;6742;48.036;15.780;2023-06-14T07:27:08;2.28;;;1.90;;
13345;SDS011;6742;48.036;15.780;2023-06-14T07:29:35;2.63;;;2.00;;
13345;SDS011;6742;48.036;15.780;2023-06-14T07:32:03;2.10;;;1.90;;
13345;SDS011;6742;48.036;15.780;2023-06-14T07:34:30;2.42;;;2.03;;
13345;SDS011;6742;48.036;15.780;2023-06-14T07:36:57;3.83;;;2.13;;
13345;SDS011;6742;48.036;15.780;2023-06-14T07:39:24;2.42;;;2.13;;
13345;SDS011;6742;48.036;15.780;2023-06-14T07:41:51;2.40;;;2.08;;
13345;SDS011;6742;48.036;15.780;2023-06-14T07:44:19;2.28;;;2.08;;
13345;SDS011;6742;48.036;15.780;2023-06-14T07:46:46;1.80;;;1.70;;
13345;SDS011;6742;48.036;15.780;2023-06-14T07:49:14;2.17;;;1.90;;
13345;SDS011;6742;48.036;15.780;2023-06-14T07:51:41;2.80;;;2.03;;
13345;SDS011;6742;48.036;15.780;2023-06-14T07:54:09;2.40;;;2.20;;
13345;SDS011;6742;48.036;15.780;2023-06-14T07:56:36;2.30;;;2.10;;
13345;SDS011;6742;48.036;15.780;2023-06-14T07:59:03;2.45;;;2.25;;
13345;SDS011;6742;48.036;15.780;2023-06-14T08:01:32;2.65;;;2.10;;
13345;SDS011;6742;48.036;15.780;2023-06-14T08:04:01;3.67;;;2.03;;
13345;SDS011;6742;48.036;15.780;2023-06-14T08:06:28;3.97;;;2.10;;
13345;SDS011;6742;48.036;15.780;2023-06-14T08:08:55;3.55;;;2.13;;
13345;SDS011;6742;48.036;15.780;2023-06-14T08:11:22;3.95;;;2.33;;
13345;SDS011;6742;48.036;15.780;2023-06-14T08:13:50;3.78;;;2.10;;
13345;SDS011;6742;48.036;15.780;2023-06-14T08:16:17;2.28;;;2.08;;
13345;SDS011;6742;48.036;15.780;2023-06-14T08:18:45;3.13;;;2.20;;
13345;SDS011;6742;48.036;15.780;2023-06-14T08:21:12;2.38;;;2.10;;
13345;SDS011;6742;48.036;15.780;2023-06-14T08:23:39;3.72;;;2.40;;
13345;SDS011;6742;48.036;15.780;2023-06-14T08:26:08;2.70;;;2.13;;
13345;SDS011;6742;48.036;15.780;2023-06-14T08:28:35;2.63;;;2.00;;
13345;SDS011;6742;48.036;15.780;2023-06-14T08:31:02;2.40;;;2.20;;
13345;SDS011;6742;48.036;15.780;2023-06-14T08:33:29;5.32;;;2.60;;
13345;SDS011;6742;48.036;15.780;2023-06-14T08:35:59;2.92;;;2.17;;
13345;SDS011;6742;48.036;15.780;2023-06-14T08:38:26;2.40;;;2.17;;
13345;SDS011;6742;48.036;15.780;2023-06-14T08:40:53;4.30;;;1.92;;
13345;SDS011;6742;48.036;15.780;2023-06-14T08:43:23;3.63;;;2.30;;
13345;SDS011;6742;48.036;15.780;2023-06-14T08:45:51;3.28;;;2.00;;
13345;SDS011;6742;48.036;15.780;2023-06-14T08:48:24;6.10;;;2.10;;
13345;SDS011;6742;48.036;15.780;2023-06-14T08:50:53;2.28;;;2.08;;
13345;SDS011;6742;48.036;15.780;2023-06-14T08:53:29;2.35;;;2.15;;
13345;SDS011;6742;48.036;15.780;2023-06-14T08:55:58;4.70;;;2.40;;
13345;SDS011;6742;48.036;15.780;2023-06-14T08:58:26;3.67;;;2.20;;
13345;SDS011;6742;48.036;15.780;2023-06-14T09:00:54;2.50;;;2.10;;
13345;SDS011;6742;48.036;15.780;2023-06-14T09:03:22;3.42;;;2.25;;
13345;SDS011;6742;48.036;15.780;2023-06-14T09:05:54;4.60;;;2.30;;
13345;SDS011;6742;48.036;15.780;2023-06-14T09:08:24;2.33;;;2.13;;
13345;SDS011;6742;48.036;15.780;2023-06-14T09:10:53;2.63;;;2.20;;
13345;SDS011;6742;48.036;15.780;2023-06-14T09:13:20;2.75;;;2.00;;
13345;SDS011;6742;48.036;15.780;2023-06-14T09:15:47;3.05;;;2.33;;
13345;SDS011;6742;48.036;15.780;2023-06-14T09:18:14;3.13;;;2.30;;
13345;SDS011;6742;48.036;15.780;2023-06-14T09:20:41;4.90;;;2.10;;
13345;SDS011;6742;48.036;15.780;2023-06-14T09:23:09;3.58;;;2.42;;
13345;SDS011;6742;48.036;15.780;2023-06-14T09:25:45;2.65;;;2.45;;
13345;SDS011;6742;48.036;15.780;2023-06-14T09:28:13;3.83;;;2.58;;
13345;SDS011;6742;48.036;15.780;2023-06-14T09:30:40;2.55;;;2.20;;
13345;SDS011;6742;48.036;15.780;2023-06-14T09:33:07;2.50;;;2.30;;
13345;SDS011;6742;48.036;15.780;2023-06-14T09:35:34;5.25;;;2.40;;
13345;SDS011;6742;48.036;15.780;2023-06-14T09:38:02;3.20;;;2.58;;
13345;SDS011;6742;48.036;15.780;2023-06-14T09:40:29;2.70;;;2.50;;
13345;SDS011;6742;48.036;15.780;2023-06-14T09:43:02;2.65;;;2.38;;
13345;SDS011;6742;48.036;15.780;2023-06-14T09:45:32;4.22;;;2.30;;
13345;SDS011;6742;48.036;15.780;2023-06-14T09:48:00;2.53;;;2.33;;
13345;SDS011;6742;48.036;15.780;2023-06-14T09:50:28;2.97;;;2.17;;
13345;SDS011;6742;48.036;15.780;2023-06-14T09:52:57;3.08;;;2.20;;
13345;SDS011;6742;48.036;15.780;2023-06-14T09:55:29;2.55;;;2.35;;
13345;SDS011;6742;48.036;15.780;2023-06-14T09:58:00;2.65;;;2.45;;
13345;SDS011;6742;48.036;15.780;2023-06-14T10:00:30;2.63;;;2.17;;
13345;SDS011;6742;48.036;15.780;2023-06-14T10:03:00;2.42;;;2.10;;
13345;SDS011;6742;48.036;15.780;2023-06-14T10:05:32;2.38;;;2.10;;
13345;SDS011;6742;48.036;15.780;2023-06-14T10:08:04;2.60;;;2.13;;
13345;SDS011;6742;48.036;15.780;2023-06-14T10:10:34;2.80;;;2.03;;
13345;SDS011;6742;48.036;15.780;2023-06-14T10:13:01;2.17;;;1.98;;
13345;SDS011;6742;48.036;15.780;2023-06-14T10:15:32;3.42;;;2.20;;
13345;SDS011;6742;48.036;15.780;2023-06-14T10:18:09;2.30;;;2.10;;
13345;SDS011;6742;48.036;15.780;2023-06-14T10:20:48;3.55;;;2.15;;
13345;SDS011;6742;48.036;15.780;2023-06-14T10:23:22;2.17;;;1.92;;
13345;SDS011;6742;48.036;15.780;2023-06-14T10:25:53;3.17;;;2.20;;
13345;SDS011;6742;48.036;15.780;2023-06-14T10:28:22;3.17;;;2.42;;
13345;SDS011;6742;48.036;15.780;2023-06-14T10:31:05;3.67;;;2.72;;
13345;SDS011;6742;48.036;15.780;2023-06-14T10:33:34;7.63;;;2.15;;
13345;SDS011;6742;48.036;15.780;2023-06-14T10:36:08;2.30;;;2.13;;
13345;SDS011;6742;48.036;15.780;2023-06-14T10:38:36;2.20;;;2.00;;
13345;SDS011;6742;48.036;15.780;2023-06-14T10:41:04;2.63;;;2.42;;
13345;SDS011;6742;48.036;15.780;2023-06-14T10:43:32;2.45;;;2.25;;
13345;SDS011;6742;48.036;15.780;2023-06-14T10:46:16;4.13;;;2.53;;
13345;SDS011;6742;48.036;15.780;2023-06-14T10:48:46;3.42;;;2.15;;
13345;SDS011;6742;48.036;15.780;2023-06-14T10:51:17;2.90;;;2.10;;
13345;SDS011;6742;48.036;15.780;2023-06-14T10:53:48;3.50;;;2.05;;
13345;SDS011;6742;48.036;15.780;2023-06-14T10:56:23;3.17;;;2.03;;
13345;SDS011;6742;48.036;15.780;2023-06-14T10:58:53;3.67;;;2.13;;
13345;SDS011;6742;48.036;15.780;2023-06-14T11:01:29;4.40;;;2.22;;
13345;SDS011;6742;48.036;15.780;2023-06-14T11:04:08;2.17;;;2.00;;
13345;SDS011;6742;48.036;15.780;2023-06-14T11:06:46;2.55;;;2.30;;
13345;SDS011;6742;48.036;15.780;2023-06-14T11:09:24;2.38;;;2.15;;
13345;SDS011;6742;48.036;15.780;2023-06-14T11:12:20;2.20;;;2.00;;
13345;SDS011;6742;48.036;15.780;2023-06-14T11:14:48;3.22;;;2.17;;
13345;SDS011;6742;48.036;15.780;2023-06-14T11:17:17;2.70;;;2.10;;
13345;SDS011;6742;48.036;15.780;2023-06-14T11:19:43;2.40;;;2.20;;
13345;SDS011;6742;48.036;15.780;2023-06-14T11:22:10;2.55;;;2.03;;
13345;SDS011;6742;48.036;15.780;2023-06-14T11:24:41;2.47;;;2.20;;
13345;SDS011;6742;48.036;15.780;2023-06-14T11:27:09;2.50;;;2.20;;
13345;SDS011;6742;48.036;15.780;2023-06-14T11:29:36;3.22;;;2.00;;
13345;SDS011;6742;48.036;15.780;2023-06-14T11:32:06;3.38;;;2.20;;
13345;SDS011;6742;48.036;15.780;2023-06-14T11:34:41;3.63;;;2.35;;
13345;SDS011;6742;48.036;15.780;2023-06-14T11:37:08;3.33;;;2.10;;
13345;SDS011;6742;48.036;15.780;2023-06-14T11:39:35;3.13;;;2.40;;
13345;SDS011;6742;48.036;15.780;2023-06-14T11:42:02;3.60;;;2.20;;
13345;SDS011;6742;48.036;15.780;2023-06-14T11:44:29;3.60;;;2.05;;
13345;SDS011;6742;48.036;15.780;2023-06-14T11:46:58;2.28;;;2.08;;
13345;SDS011;6742;48.036;15.780;2023-06-14T11:49:25;2.72;;;2.28;;
13345;SDS011;6742;48.036;15.780;2023-06-14T11:51:54;2.25;;;2.03;;
13345;SDS011;6742;48.036;15.780;2023-06-14T11:54:21;2.80;;;2.25;;
13345;SDS011;6742;48.036;15.780;2023-06-14T11:56:48;4.05;;;2.28;;
13345;SDS011;6742;48.036;15.780;2023-06-14T11:59:16;3.13;;;2.15;;
13345;SDS011;6742;48.036;15.780;2023-06-14T12:01:43;2.60;;;2.20;;
13345;SDS011;6742;48.036;15.780;2023-06-14T12:04:10;2.30;;;2.10;;
13345;SDS011;6742;48.036;15.780;2023-06-14T12:06:37;3.95;;;2.38;;
13345;SDS011;6742;48.036;15.780;2023-06-14T12:09:07;2.33;;;2.10;;
13345;SDS011;6742;48.036;15.780;2023-06-14T12:11:38;2.97;;;2.30;;
13345;SDS011;6742;48.036;15.780;2023-06-14T12:14:05;2.42;;;2.05;;
13345;SDS011;6742;48.036;15.780;2023-06-14T12:16:32;3.85;;;2.22;;
13345;SDS011;6742;48.036;15.780;2023-06-14T12:19:00;3.53;;;2.05;;
13345;SDS011;6742;48.036;15.780;2023-06-14T12:21:36;2.25;;;2.05;;
13345;SDS011;6742;48.036;15.780;2023-06-14T12:24:04;2.03;;;1.83;;
13345;SDS011;6742;48.036;15.780;2023-06-14T12:26:33;2.40;;;2.13;;
13345;SDS011;6742;48.036;15.780;2023-06-14T12:29:04;4.38;;;2.30;;
13345;SDS011;6742;48.036;15.780;2023-06-14T12:31:31;2.30;;;2.10;;
13345;SDS011;6742;48.036;15.780;2023-06-14T12:33:58;3.78;;;2.08;;
13345;SDS011;6742;48.036;15.780;2023-06-14T12:36:25;3.08;;;2.03;;
13345;SDS011;6742;48.036;15.780;2023-06-14T12:38:52;2.45;;;2.10;;
13345;SDS011;6742;48.036;15.780;2023-06-14T12:41:19;2.42;;;2.10;;
13345;SDS011;6742;48.036;15.780;2023-06-14T12:43:49;2.17;;;1.98;;
13345;SDS011;6742;48.036;15.780;2023-06-14T12:46:15;2.20;;;2.10;;
13345;SDS011;6742;48.036;15.780;2023-06-14T12:48:43;2.70;;;1.95;;
13345;SDS011;6742;48.036;15.780;2023-06-14T12:51:10;3.17;;;2.10;;
13345;SDS011;6742;48.036;15.780;2023-06-14T12:53:37;3.28;;;2.22;;
13345;SDS011;6742;48.036;15.780;2023-06-14T12:56:04;2.65;;;2.00;;
13345;SDS011;6742;48.036;15.780;2023-06-14T12:58:31;4.10;;;2.30;;
13345;SDS011;6742;48.036;15.780;2023-06-14T13:00:59;2.42;;;2.10;;
13345;SDS011;6742;48.036;15.780;2023-06-14T13:03:26;3.05;;;2.30;;
13345;SDS011;6742;48.036;15.780;2023-06-14T13:05:53;3.00;;;2.25;;
13345;SDS011;6742;48.036;15.780;2023-06-14T13:08:20;2.38;;;2.17;;
13345;SDS011;6742;48.036;15.780;2023-06-14T13:10:47;4.20;;;2.03;;
13345;SDS011;6742;48.036;15.780;2023-06-14T13:13:14;2.38;;;2.15;;
13345;SDS011;6742;48.036;15.780;2023-06-14T13:15:41;3.58;;;2.20;;
13345;SDS011;6742;48.036;15.780;2023-06-14T13:18:10;5.10;;;2.28;;
13345;SDS011;6742;48.036;15.780;2023-06-14T13:20:38;5.30;;;2.38;;
13345;SDS011;6742;48.036;15.780;2023-06-14T13:23:05;4.35;;;2.25;;
13345;SDS011;6742;48.036;15.780;2023-06-14T13:25:32;6.00;;;2.25;;
13345;SDS011;6742;48.036;15.780;2023-06-14T13:27:59;3.08;;;2.30;;
13345;SDS011;6742;48.036;15.780;2023-06-14T13:30:26;3.60;;;2.17;;
13345;SDS011;6742;48.036;15.780;2023-06-14T13:32:53;3.85;;;1.92;;
13345;SDS011;6742;48.036;15.780;2023-06-14T13:35:22;2.22;;;2.03;;
13345;SDS011;6742;48.036;15.780;2023-06-14T13:37:49;2.67;;;2.35;;
13345;SDS011;6742;48.036;15.780;2023-06-14T13:40:17;3.40;;;2.20;;
13345;SDS011;6742;48.036;15.780;2023-06-14T13:42:43;2.70;;;2.20;;
13345;SDS011;6742;48.036;15.780;2023-06-14T13:45:11;2.60;;;2.40;;
13345;SDS011;6742;48.036;15.780;2023-06-14T13:47:39;2.38;;;1.95;;
13345;SDS011;6742;48.036;15.780;2023-06-14T13:50:06;2.83;;;2.20;;
13345;SDS011;6742;48.036;15.780;2023-06-14T13:52:35;3.25;;;2.38;;
13345;SDS011;6742;48.036;15.780;2023-06-14T13:55:02;2.53;;;2.33;;
13345;SDS011;6742;48.036;15.780;2023-06-14T13:57:30;5.22;;;2.35;;
13345;SDS011;6742;48.036;15.780;2023-06-14T13:59:57;2.60;;;1.90;;
13345;SDS011;6742;48.036;15.780;2023-06-14T14:02:26;4.38;;;2.42;;
13345;SDS011;6742;48.036;15.780;2023-06-14T14:04:53;2.35;;;2.08;;
13345;SDS011;6742;48.036;15.780;2023-06-14T14:07:20;3.53;;;2.20;;
13345;SDS011;6742;48.036;15.780;2023-06-14T14:09:49;2.60;;;2.28;;
13345;SDS011;6742;48.036;15.780;2023-06-14T14:12:16;2.63;;;2.00;;
13345;SDS011;6742;48.036;15.780;2023-06-14T14:14:43;2.45;;;2.20;;
13345;SDS011;6742;48.036;15.780;2023-06-14T14:17:11;3.30;;;2.08;;
13345;SDS011;6742;48.036;15.780;2023-06-14T14:19:38;2.78;;;2.20;;
13345;SDS011;6742;48.036;15.780;2023-06-14T14:22:05;2.92;;;2.25;;
13345;SDS011;6742;48.036;15.780;2023-06-14T14:24:32;2.83;;;2.33;;
13345;SDS011;6742;48.036;15.780;2023-06-14T14:27:00;3.53;;;2.30;;
13345;SDS011;6742;48.036;15.780;2023-06-14T14:29:27;2.78;;;2.28;;
13345;SDS011;6742;48.036;15.780;2023-06-14T14:31:55;3.10;;;2.13;;
13345;SDS011;6742;48.036;15.780;2023-06-14T14:34:22;3.38;;;2.50;;
13345;SDS011;6742;48.036;15.780;2023-06-14T14:36:50;2.47;;;2.28;;
13345;SDS011;6742;48.036;15.780;2023-06-14T14:39:17;2.97;;;2.20;;
13345;SDS011;6742;48.036;15.780;2023-06-14T14:41:44;2.88;;;2.25;;
13345;SDS011;6742;48.036;15.780;2023-06-14T14:44:12;3.55;;;2.63;;
13345;SDS011;6742;48.036;15.780;2023-06-14T14:46:39;3.20;;;2.60;;
13345;SDS011;6742;48.036;15.780;2023-06-14T14:49:06;3.50;;;2.40;;
13345;SDS011;6742;48.036;15.780;2023-06-14T14:51:36;3.30;;;2.70;;
13345;SDS011;6742;48.036;15.780;2023-06-14T14:54:03;4.22;;;2.33;;